createdAt,value
2018-09-25T00:00:44.762Z,1.53
2018-09-25T00:03:18.916Z,1.13
2018-09-25T00:05:53.123Z,1.37
2018-09-25T00:08:27.255Z,1.80
2018-09-25T00:11:01.571Z,1.40
2018-09-25T00:13:35.857Z,1.40
2018-09-25T00:16:10.169Z,1.60
2018-09-25T00:18:44.270Z,1.30
2018-09-25T00:21:18.442Z,1.20
2018-09-25T00:23:52.570Z,1.63
2018-09-25T00:26:26.630Z,1.40
2018-09-25T00:29:00.870Z,1.43
2018-09-25T00:31:34.943Z,1.33
2018-09-25T00:34:09.034Z,1.00
2018-09-25T00:36:43.099Z,1.30
2018-09-25T00:39:17.270Z,1.20
2018-09-25T00:41:51.425Z,1.20
2018-09-25T00:44:25.685Z,0.80
2018-09-25T00:46:59.989Z,1.30
2018-09-25T00:49:34.210Z,1.77
2018-09-25T00:52:08.411Z,1.63
2018-09-25T00:54:42.451Z,1.30
2018-09-25T00:57:16.582Z,0.97
2018-09-25T00:59:50.811Z,1.10
2018-09-25T01:02:24.802Z,1.00
2018-09-25T01:04:58.872Z,0.80
2018-09-25T01:07:33.095Z,0.80
2018-09-25T01:10:07.230Z,1.03
2018-09-25T01:12:41.458Z,0.97
2018-09-25T01:15:15.870Z,1.37
2018-09-25T01:17:49.926Z,0.80
2018-09-25T01:20:24.050Z,0.80
2018-09-25T01:22:58.091Z,1.10
2018-09-25T01:25:39.829Z,1.00
2018-09-25T01:28:13.897Z,1.03
2018-09-25T01:30:48.005Z,0.60
2018-09-25T01:33:22.263Z,0.87
2018-09-25T01:35:56.324Z,1.00
2018-09-25T01:38:30.491Z,0.70
2018-09-25T01:41:04.593Z,0.70
2018-09-25T01:43:38.832Z,0.90
2018-09-25T01:46:12.893Z,1.17
2018-09-25T01:48:47.091Z,0.80
2018-09-25T01:51:21.384Z,0.60
2018-09-25T01:53:55.658Z,0.63
2018-09-25T01:56:29.790Z,0.67
2018-09-25T01:59:03.955Z,0.70
2018-09-25T02:01:38.002Z,0.70
2018-09-25T02:04:12.191Z,0.67
2018-09-25T02:06:46.310Z,0.70
2018-09-25T02:09:20.571Z,0.60
2018-09-25T02:11:54.746Z,0.60
2018-09-25T02:14:28.870Z,0.87
2018-09-25T02:17:03.116Z,1.60
2018-09-25T02:19:37.309Z,0.60
2018-09-25T02:22:11.570Z,0.87
2018-09-25T02:24:45.778Z,0.80
2018-09-25T02:27:20.036Z,0.50
2018-09-25T02:29:54.232Z,0.80
2018-09-25T02:32:28.494Z,0.90
2018-09-25T02:35:02.616Z,0.60
2018-09-25T02:37:36.810Z,0.57
2018-09-25T02:40:10.770Z,0.77
2018-09-25T02:42:44.972Z,0.50
2018-09-25T02:45:19.207Z,0.77
2018-09-25T02:47:53.451Z,0.70
2018-09-25T02:50:27.576Z,0.70
2018-09-25T02:53:01.770Z,0.70
2018-09-25T02:55:35.986Z,0.60
2018-09-25T02:58:10.840Z,0.70
2018-09-25T03:00:45.102Z,1.00
2018-09-25T03:03:19.490Z,0.63
2018-09-25T03:05:53.670Z,0.67
2018-09-25T03:08:27.902Z,0.70
2018-09-25T03:11:01.942Z,1.03
2018-09-25T03:13:36.030Z,1.03
2018-09-25T03:16:10.205Z,0.60
2018-09-25T03:18:44.262Z,0.93
2018-09-25T03:21:18.510Z,0.57
2018-09-25T03:23:52.590Z,0.70
2018-09-25T03:26:26.742Z,0.93
2018-09-25T03:29:00.911Z,0.60
2018-09-25T03:31:34.993Z,0.57
2018-09-25T03:34:09.353Z,0.63
2018-09-25T03:36:43.593Z,0.80
2018-09-25T03:39:17.841Z,0.83
2018-09-25T03:41:52.031Z,0.93
2018-09-25T03:47:11.253Z,0.80
2018-09-25T03:49:45.490Z,1.00
2018-09-25T03:52:19.631Z,0.70
2018-09-25T03:54:53.851Z,0.60
2018-09-25T03:57:28.034Z,0.70
2018-09-25T04:00:02.271Z,0.80
2018-09-25T04:02:36.371Z,0.70
2018-09-25T04:05:10.628Z,0.80
2018-09-25T04:07:44.771Z,0.87
2018-09-25T04:10:18.985Z,0.73
2018-09-25T04:12:53.125Z,0.70
2018-09-25T04:15:27.273Z,0.70
2018-09-25T04:18:01.414Z,0.83
2018-09-25T04:20:35.629Z,0.67
2018-09-25T04:23:09.868Z,1.10
2018-09-25T04:25:43.897Z,0.90
2018-09-25T04:28:18.174Z,0.83
2018-09-25T04:30:52.232Z,1.00
2018-09-25T04:33:26.339Z,0.90
2018-09-25T04:36:00.330Z,0.70
2018-09-25T04:38:34.683Z,0.60
2018-09-25T04:41:09.015Z,1.07
2018-09-25T04:43:43.191Z,0.70
2018-09-25T04:46:17.436Z,0.73
2018-09-25T04:48:51.682Z,0.90
2018-09-25T04:51:25.670Z,0.70
2018-09-25T04:53:59.990Z,0.90
2018-09-25T04:56:34.114Z,0.90
2018-09-25T04:59:08.334Z,0.90
2018-09-25T05:01:42.413Z,0.83
2018-09-25T05:04:16.466Z,1.30
2018-09-25T05:06:50.530Z,1.20
2018-09-25T05:09:24.698Z,1.00
2018-09-25T05:11:58.755Z,0.83
2018-09-25T05:14:32.835Z,1.07
2018-09-25T05:17:06.910Z,1.47
2018-09-25T05:19:41.109Z,1.07
2018-09-25T05:22:15.450Z,0.80
2018-09-25T05:24:49.534Z,0.90
2018-09-25T05:27:23.739Z,1.00
2018-09-25T05:29:57.765Z,0.60
2018-09-25T05:32:31.809Z,1.00
2018-09-25T05:35:05.931Z,0.80
2018-09-25T05:37:40.065Z,1.10
2018-09-25T05:40:14.291Z,1.23
2018-09-25T05:42:48.530Z,1.10
2018-09-25T05:45:22.744Z,0.97
2018-09-25T05:47:56.968Z,1.07
2018-09-25T05:50:31.025Z,1.10
2018-09-25T05:53:05.123Z,1.07
2018-09-25T05:55:39.439Z,1.00
2018-09-25T05:58:13.334Z,0.73
2018-09-25T06:00:47.592Z,1.00
2018-09-25T06:03:21.817Z,0.90
2018-09-25T06:05:56.065Z,0.80
2018-09-25T06:08:30.090Z,0.90
2018-09-25T06:11:04.305Z,0.80
2018-09-25T06:13:38.372Z,0.90
2018-09-25T06:16:12.658Z,1.20
2018-09-25T06:18:46.837Z,0.93
2018-09-25T06:21:20.974Z,0.80
2018-09-25T06:23:55.015Z,1.17
2018-09-25T06:26:29.188Z,0.77
2018-09-25T06:29:03.330Z,1.37
2018-09-25T06:31:37.388Z,1.13
2018-09-25T06:34:11.557Z,1.00
2018-09-25T06:36:45.710Z,1.40
2018-09-25T06:39:19.711Z,1.07
2018-09-25T06:41:54.048Z,0.73
2018-09-25T06:44:28.130Z,1.20
2018-09-25T06:47:02.324Z,1.37
2018-09-25T06:49:36.528Z,0.83
2018-09-25T06:52:10.715Z,1.10
2018-09-25T06:54:44.851Z,1.10
2018-09-25T06:57:19.026Z,1.10
2018-09-25T06:59:53.185Z,1.70
2018-09-25T07:02:27.250Z,1.30
2018-09-25T07:05:01.395Z,1.40
2018-09-25T07:07:35.540Z,1.60
2018-09-25T07:10:09.909Z,1.00
2018-09-25T07:12:43.885Z,1.10
2018-09-25T07:15:18.042Z,1.40
2018-09-25T07:17:52.350Z,1.20
2018-09-25T07:20:26.411Z,1.40
2018-09-25T07:23:00.497Z,1.20
2018-09-25T07:25:34.715Z,1.37
2018-09-25T07:28:08.750Z,1.30
2018-09-25T07:30:42.851Z,1.47
2018-09-25T07:33:17.024Z,1.13
2018-09-25T07:35:51.078Z,1.50
2018-09-25T07:38:32.728Z,2.37
2018-09-25T07:41:06.862Z,1.43
2018-09-25T07:43:41.174Z,1.63
2018-09-25T07:46:15.325Z,1.47
2018-09-25T07:48:49.462Z,1.20
2018-09-25T07:51:23.630Z,1.50
2018-09-25T07:53:57.825Z,1.30
2018-09-25T07:56:32.022Z,1.17
2018-09-25T07:59:06.286Z,1.00
2018-09-25T08:01:40.467Z,1.10
2018-09-25T08:04:14.608Z,1.40
2018-09-25T08:06:48.931Z,1.37
2018-09-25T08:09:23.098Z,1.30
2018-09-25T08:11:57.174Z,1.17
2018-09-25T08:14:31.327Z,1.50
2018-09-25T08:17:05.515Z,1.20
2018-09-25T08:19:39.550Z,1.10
2018-09-25T08:22:13.648Z,1.10
2018-09-25T08:24:50.840Z,1.30
2018-09-25T08:27:25.031Z,1.30
2018-09-25T08:29:59.191Z,1.33
2018-09-25T08:32:33.151Z,1.20
2018-09-25T08:35:07.530Z,1.23
2018-09-25T08:37:41.898Z,1.10
2018-09-25T08:40:16.024Z,1.20
2018-09-25T08:42:50.051Z,1.20
2018-09-25T08:45:24.036Z,1.07
2018-09-25T08:47:58.163Z,1.37
2018-09-25T08:50:32.391Z,1.33
2018-09-25T08:53:06.569Z,1.27
2018-09-25T08:55:40.740Z,1.30
2018-09-25T08:58:14.901Z,1.23
2018-09-25T09:00:49.185Z,1.03
2018-09-25T09:03:23.350Z,1.00
2018-09-25T09:05:57.588Z,1.23
2018-09-25T09:08:31.716Z,1.20
2018-09-25T09:11:06.761Z,0.90
2018-09-25T09:13:41.054Z,1.00
2018-09-25T09:16:15.395Z,1.17
2018-09-25T09:18:49.590Z,1.10
2018-09-25T09:21:23.905Z,1.10
2018-09-25T09:23:58.051Z,1.20
2018-09-25T09:26:32.145Z,1.03
2018-09-25T09:29:06.316Z,1.17
2018-09-25T09:31:40.465Z,1.20
2018-09-25T09:34:14.565Z,1.20
2018-09-25T09:36:48.755Z,0.90
2018-09-25T09:39:23.037Z,1.17
2018-09-25T09:41:57.424Z,1.50
2018-09-25T09:44:31.430Z,1.43
2018-09-25T09:47:05.520Z,1.17
2018-09-25T09:49:39.789Z,1.63
2018-09-25T09:52:13.997Z,1.17
2018-09-25T09:54:47.987Z,1.00
2018-09-25T09:57:31.704Z,1.10
2018-09-25T10:00:05.965Z,0.90
2018-09-25T10:02:40.165Z,1.00
2018-09-25T10:05:14.270Z,1.10
2018-09-25T10:07:48.394Z,0.80
2018-09-25T10:10:22.512Z,1.67
2018-09-25T10:12:56.717Z,1.10
2018-09-25T10:15:30.941Z,1.30
2018-09-25T10:18:05.115Z,1.03
2018-09-25T10:20:39.411Z,0.90
2018-09-25T10:23:13.610Z,0.87
2018-09-25T10:25:47.926Z,1.70
2018-09-25T10:28:21.982Z,1.10
2018-09-25T10:30:56.248Z,1.20
2018-09-25T10:33:30.370Z,0.90
2018-09-25T10:36:04.506Z,1.10
2018-09-25T10:38:38.831Z,1.20
2018-09-25T10:41:12.893Z,1.57
2018-09-25T10:43:47.674Z,1.00
2018-09-25T10:46:21.770Z,0.83
2018-09-25T10:48:55.845Z,1.40
2018-09-25T10:51:30.035Z,1.33
2018-09-25T10:54:04.134Z,1.00
2018-09-25T10:56:38.222Z,1.50
2018-09-25T10:59:12.324Z,0.90
2018-09-25T11:01:46.450Z,1.00
2018-09-25T11:04:20.605Z,1.03
2018-09-25T11:06:54.748Z,1.10
2018-09-25T11:09:29.017Z,1.20
2018-09-25T11:12:03.086Z,0.90
2018-09-25T11:14:37.271Z,1.07
2018-09-25T11:17:11.326Z,1.13
2018-09-25T11:19:45.469Z,1.43
2018-09-25T11:22:19.586Z,1.10
2018-09-25T11:24:53.767Z,1.27
2018-09-25T11:27:27.807Z,1.20
2018-09-25T11:30:01.815Z,1.47
2018-09-25T11:32:41.191Z,0.93
2018-09-25T11:35:15.360Z,1.20
2018-09-25T11:37:49.567Z,1.30
2018-09-25T11:40:23.790Z,1.40
2018-09-25T11:42:57.933Z,1.03
2018-09-25T11:45:32.025Z,1.00
2018-09-25T11:48:06.171Z,0.93
2018-09-25T11:50:40.335Z,1.20
2018-09-25T11:53:14.510Z,0.87
2018-09-25T11:55:48.668Z,1.03
2018-09-25T11:58:22.883Z,1.13
2018-09-25T12:00:57.151Z,0.90
2018-09-25T12:03:31.357Z,1.07
2018-09-25T12:06:05.457Z,1.00
2018-09-25T12:08:39.564Z,1.10
2018-09-25T12:11:13.745Z,1.00
2018-09-25T12:13:47.981Z,0.83
2018-09-25T12:16:22.270Z,1.20
2018-09-25T12:18:58.543Z,0.97
2018-09-25T12:21:32.812Z,1.20
2018-09-25T12:24:07.070Z,1.00
2018-09-25T12:26:41.229Z,0.90
2018-09-25T12:29:15.550Z,0.83
2018-09-25T12:31:49.740Z,0.87
2018-09-25T12:34:23.730Z,0.90
2018-09-25T12:36:57.896Z,1.20
2018-09-25T12:39:32.030Z,0.93
2018-09-25T12:42:06.211Z,1.70
2018-09-25T12:44:40.360Z,1.00
2018-09-25T12:47:14.542Z,1.00
2018-09-25T12:49:48.742Z,1.13
2018-09-25T12:52:22.897Z,1.70
2018-09-25T12:54:57.030Z,1.60
2018-09-25T12:57:31.215Z,1.20
2018-09-25T13:00:05.426Z,1.03
2018-09-25T13:02:39.610Z,0.80
2018-09-25T13:05:13.680Z,1.77
2018-09-25T13:07:47.909Z,1.60
2018-09-25T13:10:22.033Z,0.97
2018-09-25T13:12:56.190Z,1.20
2018-09-25T13:15:30.290Z,0.97
2018-09-25T13:18:04.483Z,1.30
2018-09-25T13:20:38.608Z,1.20
2018-09-25T13:23:12.736Z,1.00
2018-09-25T13:25:47.013Z,0.90
2018-09-25T13:28:21.128Z,1.20
2018-09-25T13:30:55.250Z,1.20
2018-09-25T13:33:29.393Z,1.10
2018-09-25T13:36:03.453Z,0.90
2018-09-25T13:38:37.670Z,1.10
2018-09-25T13:41:11.875Z,1.10
2018-09-25T13:43:46.150Z,0.80
2018-09-25T13:46:20.346Z,0.97
2018-09-25T13:48:54.504Z,1.10
2018-09-25T13:51:34.471Z,1.17
2018-09-25T13:54:08.417Z,1.00
2018-09-25T13:56:42.412Z,1.10
2018-09-25T13:59:16.608Z,1.10
2018-09-25T14:01:50.762Z,1.70
2018-09-25T14:04:24.852Z,1.00
2018-09-25T14:06:59.132Z,1.00
2018-09-25T14:09:33.188Z,1.43
2018-09-25T14:12:07.422Z,1.00
2018-09-25T14:14:41.654Z,0.77
2018-09-25T14:17:15.904Z,1.10
2018-09-25T14:19:50.051Z,1.17
2018-09-25T14:22:24.259Z,1.30
2018-09-25T14:24:58.384Z,1.00
2018-09-25T14:27:32.708Z,0.90
2018-09-25T14:30:06.756Z,1.23
2018-09-25T14:32:40.749Z,0.83
2018-09-25T14:35:14.787Z,0.97
2018-09-25T14:37:48.842Z,0.90
2018-09-25T14:40:22.954Z,0.97
2018-09-25T14:42:56.975Z,1.10
2018-09-25T14:45:31.171Z,0.87
2018-09-25T14:48:05.291Z,0.80
2018-09-25T14:50:39.473Z,1.00
2018-09-25T14:53:13.689Z,0.80
2018-09-25T14:55:47.774Z,1.00
2018-09-25T14:58:21.892Z,1.30
2018-09-25T15:00:56.083Z,1.23
2018-09-25T15:03:30.369Z,0.77
2018-09-25T15:06:04.571Z,1.10
2018-09-25T15:08:39.007Z,0.90
2018-09-25T15:11:13.130Z,0.90
2018-09-25T15:13:47.309Z,0.80
2018-09-25T15:16:21.466Z,1.00
2018-09-25T15:18:55.767Z,1.10
2018-09-25T15:21:30.074Z,1.13
2018-09-25T15:24:04.288Z,1.10
2018-09-25T15:26:38.481Z,0.97
2018-09-25T15:29:12.606Z,0.80
2018-09-25T15:31:46.673Z,1.23
2018-09-25T15:34:20.683Z,0.60
2018-09-25T15:36:54.883Z,0.80
2018-09-25T15:39:28.884Z,0.90
2018-09-25T15:42:03.025Z,0.80
2018-09-25T15:44:37.342Z,0.90
2018-09-25T15:47:11.502Z,1.00
2018-09-25T15:49:45.726Z,0.80
2018-09-25T15:52:19.831Z,1.10
2018-09-25T15:54:54.054Z,1.03
2018-09-25T15:57:28.251Z,1.20
2018-09-25T16:00:02.417Z,1.33
2018-09-25T16:02:36.637Z,1.13
2018-09-25T16:05:10.895Z,1.07
2018-09-25T16:07:45.051Z,1.00
2018-09-25T16:10:19.300Z,0.70
2018-09-25T16:12:53.450Z,0.90
2018-09-25T16:15:27.680Z,1.00
2018-09-25T16:18:01.710Z,0.90
2018-09-25T16:20:35.785Z,1.20
2018-09-25T16:23:09.872Z,0.80
2018-09-25T16:25:44.070Z,0.90
2018-09-25T16:28:18.193Z,1.30
2018-09-25T16:30:59.339Z,2.10
2018-09-25T16:33:33.510Z,1.40
2018-09-25T16:36:07.625Z,1.23
2018-09-25T16:38:41.748Z,1.03
2018-09-25T16:41:15.792Z,1.17
2018-09-25T16:43:49.885Z,0.90
2018-09-25T16:46:24.110Z,1.03
2018-09-25T16:48:58.153Z,1.30
2018-09-25T16:51:32.172Z,1.00
2018-09-25T16:54:06.302Z,1.10
2018-09-25T16:56:40.467Z,1.20
2018-09-25T16:59:14.702Z,0.90
2018-09-25T17:01:48.768Z,1.13
2018-09-25T17:04:22.894Z,1.50
2018-09-25T17:06:57.025Z,1.13
2018-09-25T17:09:31.271Z,1.10
2018-09-25T17:12:05.422Z,1.10
2018-09-25T17:14:39.663Z,1.20
2018-09-25T17:17:13.775Z,1.30
2018-09-25T17:19:47.811Z,1.23
2018-09-25T17:22:22.050Z,1.13
2018-09-25T17:24:56.154Z,1.23
2018-09-25T17:27:30.350Z,1.20
2018-09-25T17:30:04.710Z,4.87
2018-09-25T17:32:38.689Z,2.40
2018-09-25T17:35:12.774Z,1.57
2018-09-25T17:37:46.870Z,1.23
2018-09-25T17:40:21.166Z,1.47
2018-09-25T17:42:55.230Z,1.43
2018-09-25T17:45:29.364Z,1.47
2018-09-25T17:48:03.573Z,1.87
2018-09-25T17:50:37.674Z,1.33
2018-09-25T17:53:11.896Z,1.30
2018-09-25T17:55:46.122Z,1.50
2018-09-25T17:58:20.295Z,1.37
2018-09-25T18:00:54.521Z,2.03
2018-09-25T18:03:28.579Z,1.77
2018-09-25T18:06:02.696Z,1.70
2018-09-25T18:08:36.825Z,1.70
2018-09-25T18:11:11.213Z,1.50
2018-09-25T18:13:45.367Z,1.50
2018-09-25T18:16:19.713Z,1.30
2018-09-25T18:18:53.936Z,1.30
2018-09-25T18:21:28.013Z,1.53
2018-09-25T18:24:02.247Z,1.40
2018-09-25T18:26:36.466Z,1.50
2018-09-25T18:29:10.807Z,1.37
2018-09-25T18:31:45.178Z,1.57
2018-09-25T18:34:19.587Z,1.30
2018-09-25T18:36:53.988Z,1.40
2018-09-25T18:39:28.510Z,1.50
2018-09-25T18:42:02.948Z,1.63
2018-09-25T18:44:37.402Z,1.40
2018-09-25T18:47:12.168Z,1.30
2018-09-25T18:49:46.429Z,1.50
2018-09-25T18:52:20.840Z,1.70
2018-09-25T18:54:55.174Z,2.33
2018-09-25T18:57:29.694Z,1.63
2018-09-25T19:00:04.037Z,1.80
2018-09-25T19:02:38.511Z,1.60
2018-09-25T19:05:13.522Z,1.60
2018-09-25T19:07:47.889Z,1.73
2018-09-25T19:10:22.410Z,1.70
2018-09-25T19:12:56.990Z,1.97
2018-09-25T19:15:31.954Z,1.57
2018-09-25T19:18:06.209Z,1.80
2018-09-25T19:20:40.831Z,1.70
2018-09-25T19:23:15.088Z,2.00
2018-09-25T19:25:49.454Z,1.73
2018-09-25T19:28:23.756Z,1.87
2018-09-25T19:30:58.274Z,1.67
2018-09-25T19:33:32.675Z,1.87
2018-09-25T19:36:07.111Z,3.27
2018-09-25T19:38:41.450Z,3.17
2018-09-25T19:41:15.979Z,2.00
2018-09-25T19:43:50.410Z,2.07
2018-09-25T19:46:24.890Z,2.23
2018-09-25T19:48:59.330Z,5.33
2018-09-25T19:51:33.713Z,1.93
2018-09-25T19:54:08.313Z,1.90
2018-09-25T19:56:42.670Z,2.10
2018-09-25T19:59:17.124Z,2.27
2018-09-25T20:01:51.605Z,2.13
2018-09-25T20:04:26.242Z,2.20
2018-09-25T20:07:00.765Z,1.60
2018-09-25T20:09:35.136Z,2.23
2018-09-25T20:12:09.526Z,1.97
2018-09-25T20:14:44.170Z,2.00
2018-09-25T20:17:18.600Z,2.17
2018-09-25T20:19:53.884Z,2.47
2018-09-25T20:22:28.228Z,1.97
2018-09-25T20:25:02.756Z,2.43
2018-09-25T20:27:37.073Z,1.83
2018-09-25T20:30:11.566Z,2.20
2018-09-25T20:32:46.105Z,1.73
2018-09-25T20:35:20.565Z,2.33
2018-09-25T20:37:55.121Z,2.27
2018-09-25T20:40:29.517Z,2.10
2018-09-25T20:43:03.839Z,2.00
2018-09-25T20:45:38.158Z,2.10
2018-09-25T20:48:12.137Z,2.43
2018-09-25T20:50:46.323Z,2.10
2018-09-25T20:53:20.425Z,2.33
2018-09-25T20:55:54.630Z,1.83
2018-09-25T20:58:28.722Z,2.23
2018-09-25T21:01:02.727Z,2.10
2018-09-25T21:03:37.205Z,1.90
2018-09-25T21:06:11.687Z,2.00
2018-09-25T21:08:45.921Z,2.17
2018-09-25T21:11:20.065Z,2.00
2018-09-25T21:13:54.285Z,2.10
2018-09-25T21:16:28.575Z,2.20
2018-09-25T21:19:02.734Z,2.07
2018-09-25T21:21:36.909Z,2.13
2018-09-25T21:24:10.950Z,2.50
2018-09-25T21:26:45.109Z,2.20
2018-09-25T21:29:19.245Z,2.20
2018-09-25T21:31:53.442Z,1.97
2018-09-25T21:34:27.592Z,2.20
2018-09-25T21:37:01.787Z,2.73
2018-09-25T21:39:35.890Z,2.00
2018-09-25T21:42:10.137Z,2.43
2018-09-25T21:44:44.385Z,1.80
2018-09-25T21:47:18.455Z,2.40
2018-09-25T21:49:52.467Z,2.23
2018-09-25T21:52:26.614Z,1.90
2018-09-25T21:55:00.690Z,2.10
2018-09-25T21:57:34.880Z,2.20
2018-09-25T22:00:08.947Z,1.70
2018-09-25T22:02:43.002Z,2.17
2018-09-25T22:05:17.102Z,2.13
2018-09-25T22:07:51.250Z,2.10
2018-09-25T22:10:25.254Z,2.67
2018-09-25T22:12:59.365Z,2.20
2018-09-25T22:15:33.574Z,1.80
2018-09-25T22:18:07.750Z,2.37
2018-09-25T22:20:41.786Z,1.73
2018-09-25T22:23:15.893Z,3.40
2018-09-25T22:25:50.070Z,2.57
2018-09-25T22:28:24.257Z,2.00
2018-09-25T22:30:58.575Z,2.10
2018-09-25T22:33:32.750Z,1.80
2018-09-25T22:36:07.131Z,2.30
2018-09-25T22:38:41.289Z,2.37
2018-09-25T22:41:15.258Z,2.20
2018-09-25T22:43:49.504Z,2.23
2018-09-25T22:46:23.712Z,2.10
2018-09-25T22:48:58.036Z,1.90
2018-09-25T22:51:32.244Z,2.43
2018-09-25T22:54:06.238Z,2.20
2018-09-25T22:56:40.269Z,2.20
2018-09-25T22:59:14.593Z,2.13
2018-09-25T23:01:48.650Z,2.23
2018-09-25T23:04:22.725Z,2.37
2018-09-25T23:06:56.865Z,2.07
2018-09-25T23:09:31.111Z,2.17
2018-09-25T23:12:05.173Z,1.90
2018-09-25T23:14:39.330Z,1.90
2018-09-25T23:17:13.617Z,2.10
2018-09-25T23:19:47.789Z,2.10
2018-09-25T23:22:22.066Z,2.33
2018-09-25T23:24:56.118Z,2.20
2018-09-25T23:27:30.254Z,1.60
2018-09-25T23:30:04.357Z,2.30
2018-09-25T23:32:38.529Z,2.40
2018-09-25T23:35:12.645Z,2.00
2018-09-25T23:37:47.063Z,1.90
2018-09-25T23:40:22.088Z,1.90
2018-09-25T23:42:59.370Z,1.90
2018-09-25T23:55:34.245Z,2.57
2018-09-25T23:59:05.950Z,2.33
